Ontario, Indiana
Current Conditions -  °F | °C
As of 7:34 AM on Thursday 23 Oct 2014 (Local Time) from KIRS Reporting Station
Moderate Fog Moderate Fog  
Wind Chill: 30°   Ceiling: 100
Heat Index: 30°   Visibility: 0mi
Dew Point: 30°   Wind: 0mph
Humidity: 100%   Direction: NA
Pressure: 30.25"   Gusts: NA
Location:  41.7293°N, 85.4292°W
Report Text: KIRS 231134Z AUTO 00000KT M1/4SM FZFG OVC001 M01/M01 A3025 RMK AO2
Loading
Personal Weather Stations






























Interactive Weather Map New forecast layout! Learn more

10-Day Weather Forecast

Advertisements
Track Severe Weather on mobile